createdAt,value
2019-04-10T00:00:35.082Z,11.30
2019-04-10T00:03:06.062Z,11.30
2019-04-10T00:05:36.177Z,11.30
2019-04-10T00:08:06.162Z,11.30
2019-04-10T00:10:45.860Z,11.20
2019-04-10T00:13:24.642Z,11.30
2019-04-10T00:18:36.813Z,11.20
2019-04-10T00:21:15.513Z,11.10
2019-04-10T00:23:52.472Z,11.10
2019-04-10T00:26:22.031Z,11.00
2019-04-10T00:29:12.450Z,11.10
2019-04-10T00:31:42.270Z,11.10
2019-04-10T00:34:21.478Z,11.00
2019-04-10T00:37:01.822Z,11.00
2019-04-10T00:39:55.133Z,10.90
2019-04-10T00:42:34.805Z,11.00
2019-04-10T00:45:15.444Z,10.80
2019-04-10T00:47:53.198Z,10.80
2019-04-10T00:50:32.684Z,10.90
2019-04-10T00:53:12.794Z,10.80
2019-04-10T00:56:04.722Z,10.70
2019-04-10T00:58:45.742Z,10.90
2019-04-10T01:01:11.891Z,10.80
2019-04-10T01:03:51.244Z,10.70
2019-04-10T01:06:21.973Z,10.70
2019-04-10T01:08:59.820Z,10.70
2019-04-10T01:11:39.231Z,10.60
2019-04-10T01:14:16.055Z,10.70
2019-04-10T01:16:45.578Z,10.70
2019-04-10T01:19:15.536Z,10.70
2019-04-10T01:21:54.845Z,10.60
2019-04-10T01:24:34.229Z,10.50
2019-04-10T01:27:23.584Z,10.40
2019-04-10T01:29:53.688Z,10.60
2019-04-10T01:32:29.962Z,10.50
2019-04-10T01:35:00.300Z,10.50
2019-04-10T01:39:40.551Z,10.60
2019-04-10T01:40:07.847Z,10.50
2019-04-10T01:43:00.796Z,10.30
2019-04-10T01:45:27.182Z,10.30
2019-04-10T01:48:03.796Z,10.40
2019-04-10T01:50:34.767Z,10.20
2019-04-10T01:53:07.497Z,10.20
2019-04-10T01:55:53.736Z,10.10
2019-04-10T01:58:31.128Z,10.00
2019-04-10T02:01:14.424Z,10.00
2019-04-10T02:04:05.456Z,10.00
2019-04-10T02:06:21.037Z,9.90
2019-04-10T02:09:01.120Z,9.80
2019-04-10T02:11:39.812Z,9.90
2019-04-10T02:14:20.362Z,9.80
2019-04-10T02:16:49.542Z,9.80
2019-04-10T02:20:43.443Z,9.70
2019-04-10T02:22:08.546Z,9.70
2019-04-10T02:24:57.825Z,9.70
2019-04-10T02:27:30.023Z,9.60
2019-04-10T02:30:19.653Z,9.40
2019-04-10T02:32:59.795Z,9.50
2019-04-10T02:38:26.123Z,9.40
2019-04-10T02:40:00.339Z,9.50
2019-04-10T02:40:47.700Z,9.40
2019-04-10T02:43:27.273Z,9.30
2019-04-10T02:46:06.454Z,9.30
2019-04-10T02:48:44.250Z,9.20
2019-04-10T02:51:13.758Z,9.20
2019-04-10T02:53:53.038Z,9.10
2019-04-10T02:56:21.485Z,9.10
2019-04-10T02:59:00.273Z,9.20
2019-04-10T03:04:18.326Z,9.00
2019-04-10T03:06:48.117Z,8.90
2019-04-10T03:09:41.749Z,8.90
2019-04-10T03:12:08.520Z,9.00
2019-04-10T03:13:55.561Z,9.10
2019-04-10T03:15:08.001Z,8.90
2019-04-10T03:17:40.148Z,8.70
2019-04-10T03:20:18.478Z,8.70
2019-04-10T03:22:56.789Z,8.70
2019-04-10T03:25:26.636Z,8.70
2019-04-10T03:28:07.098Z,8.70
2019-04-10T03:30:46.528Z,8.80
2019-04-10T03:33:37.563Z,8.70
2019-04-10T03:36:05.541Z,8.70
2019-04-10T03:38:55.495Z,8.50
2019-04-10T03:41:24.127Z,8.50
2019-04-10T03:44:16.682Z,8.40
2019-04-10T03:46:44.851Z,8.30
2019-04-10T03:49:23.465Z,8.40
2019-04-10T03:51:52.940Z,8.40
2019-04-10T03:54:41.570Z,8.40
2019-04-10T03:57:12.050Z,8.30
2019-04-10T04:00:14.749Z,8.30
2019-04-10T04:02:52.097Z,8.10
2019-04-10T04:05:35.019Z,8.20
2019-04-10T04:08:13.037Z,8.20
2019-04-10T04:10:55.163Z,8.00
2019-04-10T04:13:31.354Z,8.00
2019-04-10T04:16:12.932Z,8.20
2019-04-10T04:18:51.287Z,8.00
2019-04-10T04:21:23.695Z,8.00
2019-04-10T04:26:55.074Z,7.90
2019-04-10T04:32:37.961Z,7.90
2019-04-10T04:35:06.141Z,7.90
2019-04-10T04:37:46.308Z,7.80
2019-04-10T04:40:25.805Z,7.70
2019-04-10T04:43:03.699Z,7.80
2019-04-10T04:45:33.456Z,7.70
2019-04-10T04:48:21.930Z,7.70
2019-04-10T04:50:52.390Z,7.70
2019-04-10T04:53:30.395Z,7.60
2019-04-10T04:56:11.938Z,7.60
2019-04-10T04:58:49.793Z,7.60
2019-04-10T05:01:19.385Z,7.70
2019-04-10T05:04:00.339Z,7.60
2019-04-10T05:06:39.582Z,7.60
2019-04-10T05:09:34.303Z,7.60
2019-04-10T05:11:58.633Z,7.50
2019-04-10T05:14:37.792Z,7.40
2019-04-10T05:17:17.968Z,7.40
2019-04-10T05:25:05.083Z,7.50
2019-04-10T05:30:25.000Z,7.50
2019-04-10T05:33:02.434Z,7.50
2019-04-10T05:35:32.052Z,7.40
2019-04-10T05:40:01.537Z,7.50
2019-04-10T05:43:18.480Z,7.50
2019-04-10T05:45:55.181Z,7.50
2019-04-10T05:48:39.834Z,7.50
2019-04-10T05:51:19.173Z,7.60
2019-04-10T05:53:58.543Z,7.50
2019-04-10T05:57:42.655Z,7.50
2019-04-10T05:59:16.411Z,7.50
2019-04-10T06:01:56.878Z,7.70
2019-04-10T06:04:25.326Z,7.60
2019-04-10T06:07:03.130Z,7.60
2019-04-10T06:09:33.146Z,7.50
2019-04-10T06:12:11.948Z,7.50
2019-04-10T06:14:50.464Z,7.60
2019-04-10T06:18:09.114Z,7.70
2019-04-10T06:19:58.586Z,7.70
2019-04-10T06:22:36.985Z,7.60
2019-04-10T06:25:08.678Z,7.50
2019-04-10T06:27:45.698Z,7.50
2019-04-10T06:30:24.181Z,7.50
2019-04-10T06:32:53.891Z,7.60
2019-04-10T06:35:24.099Z,7.60
2019-04-10T06:37:54.687Z,7.60
2019-04-10T06:40:27.205Z,7.60
2019-04-10T06:42:57.890Z,7.50
2019-04-10T06:45:28.022Z,7.60
2019-04-10T06:47:58.427Z,7.70
2019-04-10T06:50:30.095Z,7.70
2019-04-10T06:53:00.295Z,7.60
2019-04-10T06:55:30.163Z,7.70
2019-04-10T06:58:00.887Z,7.80
2019-04-10T07:00:32.391Z,7.80
2019-04-10T07:03:06.479Z,7.90
2019-04-10T07:05:46.183Z,7.80
2019-04-10T07:08:16.367Z,7.80
2019-04-10T07:10:55.404Z,7.80
2019-04-10T07:13:19.750Z,7.80
2019-04-10T07:15:56.336Z,7.80
2019-04-10T07:18:24.209Z,7.90
2019-04-10T07:20:56.370Z,7.90
2019-04-10T07:23:30.355Z,8.00
2019-04-10T07:25:59.448Z,8.10
2019-04-10T07:28:29.916Z,8.00
2019-04-10T07:31:04.736Z,8.10
2019-04-10T07:33:31.528Z,8.20
2019-04-10T07:36:10.914Z,8.20
2019-04-10T07:38:37.811Z,8.40
2019-04-10T07:41:18.316Z,8.40
2019-04-10T07:43:44.757Z,8.30
2019-04-10T07:46:15.118Z,8.40
2019-04-10T07:48:45.568Z,8.50
2019-04-10T07:51:15.097Z,8.70
2019-04-10T07:53:44.606Z,8.80
2019-04-10T07:56:19.262Z,8.70
2019-04-10T07:58:49.246Z,8.70
2019-04-10T08:01:18.775Z,8.70
2019-04-10T08:03:51.381Z,8.60
2019-04-10T08:06:20.253Z,8.70
2019-04-10T08:08:49.705Z,8.70
2019-04-10T08:11:20.365Z,8.80
2019-04-10T08:13:49.842Z,8.80
2019-04-10T08:16:19.292Z,8.90
2019-04-10T08:18:49.841Z,8.80
2019-04-10T08:21:19.796Z,9.00
2019-04-10T08:23:51.432Z,9.10
2019-04-10T08:26:22.813Z,9.10
2019-04-10T08:28:52.341Z,9.10
2019-04-10T08:31:22.726Z,9.10
2019-04-10T08:33:52.849Z,9.10
2019-04-10T08:36:23.442Z,9.10
2019-04-10T08:38:55.030Z,9.30
2019-04-10T08:41:25.616Z,9.20
2019-04-10T08:43:56.615Z,9.30
2019-04-10T08:46:28.261Z,9.60
2019-04-10T08:48:58.074Z,9.40
2019-04-10T08:51:30.972Z,9.40
2019-04-10T08:54:04.774Z,9.40
2019-04-10T08:56:34.353Z,9.50
2019-04-10T08:59:07.623Z,9.60
2019-04-10T09:01:37.650Z,9.60
2019-04-10T09:04:07.785Z,9.60
2019-04-10T09:06:37.795Z,9.60
2019-04-10T09:09:08.135Z,9.80
2019-04-10T09:11:39.070Z,9.90
2019-04-10T09:14:08.709Z,10.00
2019-04-10T09:16:38.540Z,10.00
2019-04-10T09:19:12.010Z,9.90
2019-04-10T09:21:41.696Z,10.00
2019-04-10T09:24:15.375Z,10.00
2019-04-10T09:26:46.672Z,10.20
2019-04-10T09:29:16.170Z,10.40
2019-04-10T09:31:48.153Z,10.70
2019-04-10T09:34:19.906Z,10.80
2019-04-10T09:36:49.349Z,10.90
2019-04-10T09:39:19.181Z,11.00
2019-04-10T09:41:48.753Z,11.10
2019-04-10T09:44:21.196Z,11.20
2019-04-10T09:46:51.702Z,11.20
2019-04-10T09:49:31.663Z,11.10
2019-04-10T09:51:52.373Z,11.10
2019-04-10T09:54:21.909Z,11.10
2019-04-10T09:56:51.365Z,11.20
2019-04-10T09:59:31.249Z,11.20
2019-04-10T10:01:52.840Z,11.40
2019-04-10T10:04:22.259Z,11.50
2019-04-10T10:06:53.372Z,11.80
2019-04-10T10:09:23.863Z,11.90
2019-04-10T10:11:59.027Z,12.20
2019-04-10T10:14:31.915Z,12.30
2019-04-10T10:17:01.230Z,12.50
2019-04-10T10:19:30.772Z,12.30
2019-04-10T10:22:02.262Z,12.10
2019-04-10T10:24:31.312Z,12.10
2019-04-10T10:27:01.892Z,12.10
2019-04-10T10:29:35.655Z,12.30
2019-04-10T10:32:06.611Z,12.20
2019-04-10T10:34:36.714Z,12.10
2019-04-10T10:37:06.500Z,11.80
2019-04-10T10:39:37.010Z,11.80
2019-04-10T10:42:09.665Z,11.80
2019-04-10T10:44:40.432Z,12.00
2019-04-10T10:47:11.783Z,12.20
2019-04-10T10:49:43.174Z,12.30
2019-04-10T10:52:15.358Z,12.40
2019-04-10T10:54:45.243Z,12.50
2019-04-10T10:57:15.579Z,12.70
2019-04-10T10:59:45.982Z,12.80
2019-04-10T11:02:15.741Z,13.00
2019-04-10T11:04:45.398Z,13.00
2019-04-10T11:07:14.773Z,13.10
2019-04-10T11:09:44.452Z,13.10
2019-04-10T11:12:14.145Z,13.30
2019-04-10T11:14:45.654Z,13.90
2019-04-10T11:17:17.558Z,14.70
2019-04-10T11:19:48.672Z,15.20
2019-04-10T11:22:22.527Z,15.70
2019-04-10T11:24:52.879Z,16.30
2019-04-10T11:27:23.435Z,16.40
2019-04-10T11:30:00.842Z,16.50
2019-04-10T11:32:30.599Z,16.40
2019-04-10T11:35:00.057Z,16.20
2019-04-10T11:37:39.161Z,16.20
2019-04-10T11:40:01.278Z,16.50
2019-04-10T11:42:33.398Z,16.70
2019-04-10T11:45:08.024Z,17.00
2019-04-10T11:47:38.845Z,17.20
2019-04-10T11:50:13.400Z,17.40
2019-04-10T11:52:49.001Z,18.00
2019-04-10T11:57:45.929Z,18.50
2019-04-10T12:00:19.715Z,18.10
2019-04-10T12:02:52.855Z,17.70
2019-04-10T12:05:25.464Z,18.00
2019-04-10T12:08:20.997Z,17.90
2019-04-10T12:12:57.644Z,18.50
2019-04-10T12:15:28.152Z,18.60
2019-04-10T12:17:58.199Z,18.70
2019-04-10T12:20:29.211Z,19.40
2019-04-10T12:22:58.927Z,19.50
2019-04-10T12:25:29.868Z,19.90
2019-04-10T12:27:59.328Z,19.20
2019-04-10T12:30:28.998Z,19.20
2019-04-10T12:33:01.541Z,19.90
2019-04-10T12:35:31.967Z,20.30
2019-04-10T12:38:06.905Z,20.20
2019-04-10T12:40:33.413Z,20.30
2019-04-10T12:43:03.169Z,20.50
2019-04-10T12:45:32.748Z,20.60
2019-04-10T12:48:02.191Z,20.80
2019-04-10T12:50:32.766Z,20.50
2019-04-10T12:53:03.816Z,20.20
2019-04-10T12:55:33.251Z,20.00
2019-04-10T12:58:08.399Z,19.60
2019-04-10T13:00:35.969Z,19.60
2019-04-10T13:03:09.262Z,19.70
2019-04-10T13:05:41.138Z,19.90
2019-04-10T13:08:17.092Z,19.60
2019-04-10T13:10:43.560Z,19.70
2019-04-10T13:13:18.423Z,19.70
2019-04-10T13:15:49.775Z,19.90
2019-04-10T13:18:20.447Z,20.00
2019-04-10T13:20:50.304Z,19.90
2019-04-10T13:23:20.457Z,20.20
2019-04-10T13:25:59.787Z,20.40
2019-04-10T13:28:22.153Z,20.30
2019-04-10T13:30:54.094Z,20.30
2019-04-10T13:33:22.676Z,20.50
2019-04-10T13:35:53.393Z,20.30
2019-04-10T13:38:28.725Z,20.10
2019-04-10T13:40:54.316Z,20.20
2019-04-10T13:43:23.831Z,20.30
2019-04-10T13:45:54.166Z,20.30
2019-04-10T13:48:23.677Z,20.20
2019-04-10T13:50:53.115Z,20.00
2019-04-10T13:53:23.767Z,20.10
2019-04-10T13:55:53.269Z,19.80
2019-04-10T13:58:25.011Z,19.50
2019-04-10T14:00:53.856Z,19.50
2019-04-10T14:03:23.285Z,19.10
2019-04-10T14:05:52.994Z,18.90
2019-04-10T14:08:33.924Z,18.60
2019-04-10T14:10:53.655Z,18.70
2019-04-10T14:13:25.179Z,18.70
2019-04-10T14:15:55.988Z,18.50
2019-04-10T14:18:26.230Z,18.00
2019-04-10T14:20:55.789Z,17.60
2019-04-10T14:23:29.461Z,17.10
2019-04-10T14:26:20.267Z,17.00
2019-04-10T14:28:49.266Z,16.90
2019-04-10T14:31:32.533Z,16.70
2019-04-10T14:34:04.636Z,16.50
2019-04-10T14:36:34.133Z,16.40
2019-04-10T14:39:12.157Z,16.30
2019-04-10T14:41:38.022Z,16.30
2019-04-10T14:44:08.276Z,16.10
2019-04-10T14:46:38.093Z,15.80
2019-04-10T14:49:07.627Z,15.70
2019-04-10T14:51:39.102Z,15.50
2019-04-10T14:54:09.052Z,15.50
2019-04-10T14:56:38.589Z,15.70
2019-04-10T14:59:08.131Z,15.70
2019-04-10T15:01:37.873Z,15.50
2019-04-10T15:04:08.880Z,15.20
2019-04-10T15:06:38.288Z,15.20
2019-04-10T15:09:24.005Z,15.20
2019-04-10T15:11:49.101Z,15.40
2019-04-10T15:14:19.397Z,15.30
2019-04-10T15:17:01.869Z,15.30
2019-04-10T15:19:28.968Z,15.20
2019-04-10T15:22:04.645Z,15.10
2019-04-10T15:24:37.223Z,15.10
2019-04-10T15:27:11.063Z,15.00
2019-04-10T15:29:40.879Z,15.00
2019-04-10T15:32:10.694Z,15.00
2019-04-10T15:34:40.200Z,15.10
2019-04-10T15:37:11.176Z,15.10
2019-04-10T15:39:41.776Z,15.20
2019-04-10T15:42:14.206Z,15.00
2019-04-10T15:44:48.167Z,14.90
2019-04-10T15:47:21.451Z,14.90
2019-04-10T15:49:52.199Z,14.80
2019-04-10T15:52:20.785Z,14.90
2019-04-10T15:54:53.319Z,14.80
2019-04-10T15:57:24.909Z,14.70
2019-04-10T15:59:56.621Z,14.60
2019-04-10T16:02:26.225Z,14.70
2019-04-10T16:05:03.121Z,14.70
2019-04-10T16:07:36.218Z,14.70
2019-04-10T16:10:14.883Z,14.80
2019-04-10T16:12:44.431Z,14.70
2019-04-10T16:15:15.220Z,14.80
2019-04-10T16:17:52.205Z,14.60
2019-04-10T16:20:30.514Z,14.60
2019-04-10T16:23:10.566Z,14.60
2019-04-10T16:25:43.419Z,14.60
2019-04-10T16:28:15.412Z,14.60
2019-04-10T16:30:47.127Z,14.50
2019-04-10T16:33:18.859Z,14.40
2019-04-10T16:35:48.546Z,14.30
2019-04-10T16:38:20.704Z,14.30
2019-04-10T16:40:52.074Z,14.20
2019-04-10T16:43:27.118Z,14.20
2019-04-10T16:45:57.262Z,14.30
2019-04-10T16:48:28.271Z,14.40
2019-04-10T16:50:57.851Z,14.30
2019-04-10T16:53:27.929Z,14.30
2019-04-10T16:55:57.539Z,14.30
2019-04-10T16:58:29.736Z,14.30
2019-04-10T17:00:59.185Z,14.30
2019-04-10T17:03:29.547Z,14.40
2019-04-10T17:06:01.870Z,14.30
2019-04-10T17:08:34.284Z,14.20
2019-04-10T17:11:05.478Z,14.10
2019-04-10T17:13:38.514Z,14.10
2019-04-10T17:16:09.508Z,14.10
2019-04-10T17:18:39.885Z,14.00
2019-04-10T17:21:09.459Z,13.90
2019-04-10T17:23:42.841Z,13.80
2019-04-10T17:26:12.944Z,13.80
2019-04-10T17:28:44.845Z,13.70
2019-04-10T17:31:16.115Z,13.70
2019-04-10T17:33:47.170Z,13.70
2019-04-10T17:36:16.986Z,13.70
2019-04-10T17:38:48.739Z,13.70
2019-04-10T17:41:19.694Z,13.70
2019-04-10T17:43:49.590Z,13.60
2019-04-10T17:46:20.457Z,13.50
2019-04-10T17:48:51.748Z,13.40
2019-04-10T17:51:28.271Z,13.50
2019-04-10T17:53:58.064Z,13.30
2019-04-10T17:56:30.480Z,13.30
2019-04-10T17:59:00.281Z,13.20
2019-04-10T18:01:29.897Z,13.00
2019-04-10T18:04:03.472Z,13.00
2019-04-10T18:06:31.581Z,12.90
2019-04-10T18:09:11.890Z,12.80
2019-04-10T18:11:41.868Z,12.70
2019-04-10T18:14:11.340Z,12.80
2019-04-10T18:16:40.780Z,12.80
2019-04-10T18:19:15.338Z,12.90
2019-04-10T18:21:44.463Z,12.80
2019-04-10T18:24:15.751Z,12.70
2019-04-10T18:26:50.786Z,12.70
2019-04-10T18:29:19.085Z,12.70
2019-04-10T18:31:49.366Z,12.70
2019-04-10T18:34:20.042Z,12.60
2019-04-10T18:36:52.374Z,12.50
2019-04-10T18:39:20.605Z,12.50
2019-04-10T18:41:52.101Z,12.40
2019-04-10T18:44:22.706Z,12.30
2019-04-10T18:46:54.314Z,12.20
2019-04-10T18:49:25.698Z,12.10
2019-04-10T18:51:56.267Z,12.00
2019-04-10T18:54:26.916Z,12.10
2019-04-10T18:56:57.647Z,12.10
2019-04-10T18:59:44.907Z,12.10
2019-04-10T19:02:32.866Z,12.00
2019-04-10T19:05:11.759Z,11.90
2019-04-10T19:07:41.343Z,11.80
2019-04-10T19:10:12.899Z,11.70
2019-04-10T19:12:43.220Z,11.70
2019-04-10T19:15:13.330Z,11.70
2019-04-10T19:17:43.343Z,11.60
2019-04-10T19:20:13.542Z,11.50
2019-04-10T19:22:44.670Z,11.40
2019-04-10T19:25:16.438Z,11.40
2019-04-10T19:27:46.549Z,11.40
2019-04-10T19:30:19.083Z,11.50
2019-04-10T19:32:51.958Z,11.40
2019-04-10T19:35:21.539Z,11.30
2019-04-10T19:37:51.575Z,11.30
2019-04-10T19:40:24.810Z,11.40
2019-04-10T19:42:57.759Z,11.20
2019-04-10T19:45:30.688Z,11.10
2019-04-10T19:48:09.000Z,11.10
2019-04-10T19:50:41.540Z,11.10
2019-04-10T19:53:11.212Z,11.00
2019-04-10T19:55:42.294Z,10.90
2019-04-10T19:58:14.207Z,10.90
2019-04-10T20:00:46.965Z,11.00
2019-04-10T20:03:16.466Z,10.90
2019-04-10T20:05:46.991Z,10.80
2019-04-10T20:08:17.617Z,10.70
2019-04-10T20:10:47.991Z,10.70
2019-04-10T20:13:21.290Z,10.80
2019-04-10T20:15:51.002Z,10.80
2019-04-10T20:18:20.992Z,10.70
2019-04-10T20:20:53.265Z,10.60
2019-04-10T20:23:23.734Z,10.50
2019-04-10T20:25:53.337Z,10.40
2019-04-10T20:28:24.734Z,10.50
2019-04-10T20:30:58.323Z,10.40
2019-04-10T20:33:29.034Z,10.50
2019-04-10T20:36:00.461Z,10.40
2019-04-10T20:38:32.030Z,10.30
2019-04-10T20:41:02.347Z,10.20
2019-04-10T20:43:35.162Z,10.20
2019-04-10T20:46:06.601Z,10.10
2019-04-10T20:48:38.387Z,10.10
2019-04-10T20:51:09.311Z,10.10
2019-04-10T20:53:40.710Z,10.20
2019-04-10T20:56:12.449Z,10.20
2019-04-10T20:58:44.831Z,10.10
2019-04-10T21:01:14.584Z,10.10
2019-04-10T21:03:44.644Z,10.00
2019-04-10T21:06:15.647Z,10.00
2019-04-10T21:08:47.098Z,10.00
2019-04-10T21:11:16.556Z,9.90
2019-04-10T21:13:48.988Z,9.80
2019-04-10T21:16:21.406Z,9.80
2019-04-10T21:18:51.805Z,9.70
2019-04-10T21:21:22.196Z,9.60
2019-04-10T21:23:57.540Z,9.60
2019-04-10T21:26:28.309Z,9.70
2019-04-10T21:28:58.765Z,9.70
2019-04-10T21:31:44.802Z,9.60
2019-04-10T21:34:26.219Z,9.50
2019-04-10T21:36:57.612Z,9.50
2019-04-10T21:39:27.756Z,9.50
2019-04-10T21:42:15.808Z,9.40
2019-04-10T21:44:37.165Z,9.30
2019-04-10T21:47:06.713Z,9.30
2019-04-10T21:49:38.027Z,9.20
2019-04-10T21:52:07.809Z,9.10
2019-04-10T21:54:49.488Z,9.10
2019-04-10T21:57:14.238Z,9.10
2019-04-10T21:59:43.827Z,9.10
2019-04-10T22:02:15.332Z,9.10
2019-04-10T22:04:45.968Z,9.10
2019-04-10T22:07:32.271Z,9.00
2019-04-10T22:10:03.852Z,9.00
2019-04-10T22:12:39.409Z,9.00
2019-04-10T22:15:09.277Z,8.90
2019-04-10T22:17:42.566Z,8.90
2019-04-10T22:20:12.077Z,8.80
2019-04-10T22:22:41.636Z,8.90
2019-04-10T22:25:15.176Z,8.80
2019-04-10T22:27:48.302Z,8.70
2019-04-10T22:30:19.243Z,8.70
2019-04-10T22:32:51.611Z,8.70
2019-04-10T22:35:31.629Z,8.80
2019-04-10T22:38:00.998Z,8.60
2019-04-10T22:40:31.202Z,8.60
2019-04-10T22:43:00.760Z,8.50
2019-04-10T22:45:36.009Z,8.40
2019-04-10T22:48:06.287Z,8.30
2019-04-10T22:50:45.383Z,8.30
2019-04-10T22:53:15.192Z,8.30
2019-04-10T22:55:44.605Z,8.30
2019-04-10T22:58:14.960Z,8.10
2019-04-10T23:00:48.465Z,8.10
2019-04-10T23:03:20.214Z,8.00
2019-04-10T23:05:53.081Z,8.00
2019-04-10T23:08:28.452Z,8.00
2019-04-10T23:11:01.509Z,8.00
2019-04-10T23:13:34.072Z,7.90
2019-04-10T23:16:08.640Z,7.90
2019-04-10T23:18:47.807Z,7.80
2019-04-10T23:21:18.641Z,7.70
2019-04-10T23:23:48.941Z,7.70
2019-04-10T23:26:22.965Z,7.50
2019-04-10T23:28:54.581Z,7.50
2019-04-10T23:31:27.889Z,7.50
2019-04-10T23:34:04.901Z,7.50
2019-04-10T23:36:34.576Z,7.40
2019-04-10T23:39:10.326Z,7.30
2019-04-10T23:41:40.019Z,7.30
2019-04-10T23:44:11.015Z,7.30
2019-04-10T23:46:40.473Z,7.20
2019-04-10T23:49:13.048Z,7.10
2019-04-10T23:51:45.398Z,7.20
2019-04-10T23:54:15.217Z,7.10
2019-04-10T23:56:47.644Z,7.00
2019-04-10T23:59:15.809Z,6.90
